Time;durP1;ratioP1;P1;durP2;ratioP2;P2;SDS_P1;SDS_P2;PMS_P1;PMS_P2;Temp;Humidity;BMP_temperature;BMP_pressure;BME280_temperature;BME280_humidity;BME280_pressure;Samples;Min_cycle;Max_cycle;Signal;HPM_P1;HPM_P2
2022/08/14 00:01:58;;;;;;;7.68;5.97;;;;;;;22.17;49.41;99769.91;5029420;28;20042;-46
2022/08/14 00:04:28;;;;;;;10.63;6.75;;;;;;;22.12;49.55;99766.63;5028969;28;20385;-49
2022/08/14 00:07:10;;;;;;;10.60;7.07;;;;;;;22.06;50.01;99761.72;5031303;28;20132;-47
2022/08/14 00:09:39;;;;;;;11.52;7.50;;;;;;;22.02;49.90;99761.03;5028732;28;20045;-48
2022/08/14 00:12:26;;;;;;;11.40;6.88;;;;;;;21.98;49.97;99763.94;5029934;28;20053;-47
2022/08/14 00:15:09;;;;;;;11.07;6.03;;;;;;;21.94;49.98;99763.25;5030194;28;20054;-47
2022/08/14 00:17:36;;;;;;;10.50;6.38;;;;;;;21.90;49.89;99764.34;5030838;28;20111;-50
2022/08/14 00:20:15;;;;;;;12.60;5.90;;;;;;;21.85;50.36;99758.50;5031845;28;20053;-45
2022/08/14 00:22:50;;;;;;;9.25;5.78;;;;;;;21.78;50.63;99761.44;5029778;28;20045;-45
2022/08/14 00:25:24;;;;;;;10.70;6.88;;;;;;;21.73;50.11;99759.97;5030449;28;20049;-49
2022/08/14 00:28:10;;;;;;;9.48;6.95;;;;;;;21.68;50.40;99762.84;5015626;28;20436;-45
2022/08/14 00:30:42;;;;;;;12.80;6.88;;;;;;;21.63;50.39;99754.34;5028822;28;20140;-48
2022/08/14 00:33:09;;;;;;;13.32;7.63;;;;;;;21.60;50.50;99749.22;5026794;28;20494;-47
2022/08/14 00:35:41;;;;;;;12.77;6.82;;;;;;;21.58;50.82;99751.94;5030742;28;20048;-51
2022/08/14 00:38:28;;;;;;;10.40;7.00;;;;;;;21.53;50.82;99744.31;5031152;28;20143;-51
2022/08/14 00:40:58;;;;;;;12.75;6.72;;;;;;;21.51;50.99;99751.44;5030307;28;20115;-45
2022/08/14 00:43:24;;;;;;;11.23;6.70;;;;;;;21.45;51.01;99747.34;5030452;28;20107;-48
2022/08/14 00:46:07;;;;;;;10.05;7.10;;;;;;;21.42;51.31;99736.13;5030013;28;20060;-46
2022/08/14 00:48:54;;;;;;;9.57;7.10;;;;;;;21.38;51.26;99735.41;5014617;28;20077;-48
2022/08/14 00:51:24;;;;;;;8.88;6.53;;;;;;;21.37;51.38;99740.75;5030701;28;20042;-47
2022/08/14 00:54:03;;;;;;;10.63;7.88;;;;;;;21.32;51.70;99731.31;5029363;28;20132;-50
2022/08/14 00:56:36;;;;;;;12.13;6.28;;;;;;;21.28;51.53;99732.44;5026976;28;20041;-48
2022/08/14 00:59:04;;;;;;;10.30;7.05;;;;;;;21.25;51.42;99734.38;5030889;28;20593;-48
2022/08/14 01:01:32;;;;;;;9.85;7.53;;;;;;;21.22;51.86;99730.13;5028619;28;20046;-51
2022/08/14 01:04:01;;;;;;;9.52;6.93;;;;;;;21.19;52.06;99731.16;5028536;28;20449;-49
2022/08/14 01:06:31;;;;;;;13.65;7.22;;;;;;;21.16;51.90;99727.81;5028721;28;20064;-49
2022/08/14 01:09:01;;;;;;;10.93;6.90;;;;;;;21.12;52.10;99728.91;5029255;28;20048;-49
2022/08/14 01:11:28;;;;;;;8.32;6.57;;;;;;;21.08;51.91;99724.72;5030031;28;20472;-46
2022/08/14 01:14:02;;;;;;;8.85;7.22;;;;;;;21.03;52.13;99720.56;5027411;28;20064;-49
2022/08/14 01:16:49;;;;;;;9.98;7.18;;;;;;;21.00;52.11;99719.84;5025737;28;20116;-51
2022/08/14 01:22:07;;;;;;;9.82;7.10;;;;;;;20.92;52.23;99713.22;5027842;28;20053;-48
2022/08/14 01:24:40;;;;;;;9.38;6.20;;;;;;;20.90;52.23;99708.94;5027195;28;20049;-48
2022/08/14 01:27:16;;;;;;;10.90;6.13;;;;;;;20.87;52.43;99709.09;5028885;28;20057;-48
2022/08/14 01:29:46;;;;;;;10.40;7.20;;;;;;;20.84;52.68;99709.25;5027636;28;20053;-51
2022/08/14 01:32:31;;;;;;;9.02;6.72;;;;;;;20.78;52.61;99705.97;5028810;28;20048;-48
2022/08/14 01:35:08;;;;;;;9.73;7.53;;;;;;;20.75;52.65;99700.91;5029330;28;20375;-49
2022/08/14 01:37:56;;;;;;;13.45;8.05;;;;;;;20.72;52.53;99705.44;5029593;28;20103;-49
2022/08/14 01:40:25;;;;;;;10.65;7.05;;;;;;;20.69;52.50;99698.56;5028966;28;20453;-48
2022/08/14 01:43:13;;;;;;;8.98;6.47;;;;;;;20.63;52.54;99696.22;5025912;28;20056;-50
2022/08/14 01:45:41;;;;;;;10.10;6.38;;;;;;;20.60;52.68;99691.97;5031432;28;20049;-47
2022/08/14 01:48:08;;;;;;;10.68;6.85;;;;;;;20.58;53.12;99693.84;5027411;28;20494;-50
2022/08/14 01:50:40;;;;;;;9.70;6.60;;;;;;;20.54;53.39;99690.50;5029447;28;20456;-45
2022/08/14 01:53:08;;;;;;;10.00;6.97;;;;;;;20.50;53.41;99691.59;5030163;28;20045;-49
2022/08/14 01:55:38;;;;;;;10.13;5.72;;;;;;;20.46;53.00;99687.41;5028869;28;20049;-50
2022/08/14 01:58:10;;;;;;;10.55;6.30;;;;;;;20.42;53.18;99693.75;5028626;28;20042;-49
2022/08/14 02:00:52;;;;;;;9.88;6.60;;;;;;;20.41;53.18;99692.06;5026012;28;20604;-49
2022/08/14 02:03:25;;;;;;;12.40;6.45;;;;;;;20.37;53.14;99690.50;5027576;28;20072;-47
2022/08/14 02:05:58;;;;;;;8.82;6.28;;;;;;;20.32;53.37;99695.13;5026643;28;20743;-45
2022/08/14 02:08:45;;;;;;;9.20;6.13;;;;;;;20.27;52.95;99685.69;5028935;28;20104;-46
2022/08/14 02:11:22;;;;;;;9.55;5.85;;;;;;;20.23;53.19;99688.56;5028670;28;20045;-46
2022/08/14 02:14:01;;;;;;;8.27;6.60;;;;;;;20.15;53.07;99681.03;5028777;28;20099;-46
2022/08/14 02:16:37;;;;;;;8.80;6.07;;;;;;;20.16;53.49;99688.84;5058285;28;20053;-46
2022/08/14 02:19:07;;;;;;;8.60;6.25;;;;;;;20.14;53.32;99684.59;5028633;28;20492;-44
2022/08/14 02:21:35;;;;;;;9.75;6.43;;;;;;;20.10;53.25;99688.31;5026372;28;20072;-48
2022/08/14 02:24:10;;;;;;;11.35;7.20;;;;;;;20.08;53.13;99690.16;5024483;28;20053;-46
2022/08/14 02:26:59;;;;;;;10.75;6.10;;;;;;;20.03;53.48;99680.72;5026584;28;20129;-47
2022/08/14 02:29:46;;;;;;;9.85;6.05;;;;;;;19.97;53.78;99688.88;5027748;28;20089;-46
2022/08/14 02:32:26;;;;;;;9.77;6.55;;;;;;;19.94;53.61;99678.50;5026674;28;20382;-45
2022/08/14 02:35:09;;;;;;;12.20;6.03;;;;;;;19.92;53.75;99680.34;5025713;28;20057;-46
2022/08/14 02:37:35;;;;;;;10.02;6.15;;;;;;;19.90;53.84;99687.47;5027839;28;20061;-48
2022/08/14 02:40:17;;;;;;;9.57;5.97;;;;;;;19.88;53.77;99678.78;5026393;28;20140;-53
2022/08/14 02:42:44;;;;;;;11.55;6.22;;;;;;;19.87;53.67;99677.94;5028520;28;20042;-50
2022/08/14 02:45:21;;;;;;;9.45;6.25;;;;;;;19.85;53.45;99678.91;5029262;28;20045;-49
2022/08/14 02:47:48;;;;;;;9.48;5.82;;;;;;;19.84;53.96;99677.22;5028675;28;20551;-45
2022/08/14 02:50:22;;;;;;;8.10;5.70;;;;;;;19.79;53.47;99666.94;5027166;28;20377;-47
2022/08/14 02:52:53;;;;;;;9.70;6.18;;;;;;;19.76;53.89;99664.47;5027908;28;20045;-47
2022/08/14 02:55:32;;;;;;;12.75;6.18;;;;;;;19.74;53.41;99656.66;5024240;28;20062;-47
2022/08/14 02:58:00;;;;;;;9.30;5.90;;;;;;;19.71;53.65;99659.41;5028621;28;20041;-47
2022/08/14 03:00:31;;;;;;;10.00;6.30;;;;;;;19.68;53.86;99651.69;5027540;28;20052;-47
2022/08/14 03:03:01;;;;;;;9.07;6.00;;;;;;;19.67;53.72;99654.38;5027006;28;20057;-46
2022/08/14 03:05:34;;;;;;;9.25;5.70;;;;;;;19.62;54.09;99652.81;5027225;28;20048;-48
2022/08/14 03:08:06;;;;;;;8.80;5.90;;;;;;;19.61;53.76;99645.00;5028679;28;20072;-46
2022/08/14 03:10:33;;;;;;;8.20;5.38;;;;;;;19.58;53.74;99642.53;5026559;28;20139;-46
2022/08/14 03:13:03;;;;;;;10.13;5.47;;;;;;;19.57;54.11;99640.81;5027948;28;20041;-43
2022/08/14 03:15:32;;;;;;;8.38;5.25;;;;;;;19.53;53.47;99638.34;5024022;28;20107;-50
2022/08/14 03:17:59;;;;;;;13.30;6.38;;;;;;;19.49;53.85;99631.53;5026695;28;20053;-46
2022/08/14 03:20:29;;;;;;;8.38;6.00;;;;;;;19.47;53.46;99627.28;5027359;28;20118;-48
2022/08/14 03:22:59;;;;;;;8.65;5.63;;;;;;;19.45;53.55;99623.88;5026718;28;20740;-49
2022/08/14 03:25:32;;;;;;;8.13;5.40;;;;;;;19.41;54.11;99623.16;5024088;28;20116;-52
2022/08/14 03:28:04;;;;;;;11.70;5.60;;;;;;;19.40;53.69;99621.47;5010309;28;20103;-46
2022/08/14 03:30:32;;;;;;;8.18;5.00;;;;;;;19.37;53.85;99618.97;5022795;28;20406;-51
2022/08/14 03:33:08;;;;;;;8.60;5.63;;;;;;;19.36;53.80;99614.66;5026481;28;20053;-50
2022/08/14 03:35:36;;;;;;;8.88;5.43;;;;;;;19.33;53.53;99615.66;5025066;28;20575;-50
2022/08/14 03:38:08;;;;;;;9.30;5.80;;;;;;;19.31;53.88;99621.88;5025281;28;20111;-47
2022/08/14 03:40:54;;;;;;;9.05;5.70;;;;;;;19.27;53.95;99616.78;5026001;28;20041;-47
2022/08/14 03:43:21;;;;;;;10.98;5.70;;;;;;;19.25;53.83;99612.53;5027483;28;20909;-48
2022/08/14 03:45:48;;;;;;;8.18;5.80;;;;;;;19.24;53.56;99621.31;5030059;28;20042;-51
2022/08/14 03:48:18;;;;;;;8.68;5.20;;;;;;;19.22;53.85;99621.38;5026167;28;20132;-53
2022/08/14 03:50:58;;;;;;;7.03;4.93;;;;;;;19.16;54.07;99619.06;5024996;28;20046;-50
2022/08/14 03:53:27;;;;;;;10.52;5.00;;;;;;;19.14;54.26;99615.63;5027399;28;20041;-50
2022/08/14 03:55:57;;;;;;;10.73;6.22;;;;;;;19.10;53.45;99614.06;5027502;28;20056;-50
2022/08/14 03:58:24;;;;;;;11.70;6.07;;;;;;;19.07;54.17;99615.06;5027880;28;20041;-46
2022/08/14 04:01:04;;;;;;;9.60;6.00;;;;;;;19.06;54.20;99612.47;5027447;28;20045;-47
2022/08/14 04:03:32;;;;;;;7.88;6.03;;;;;;;19.04;54.08;99614.34;5027571;28;20143;-48
2022/08/14 04:06:03;;;;;;;8.07;6.00;;;;;;;19.01;54.20;99610.03;5026704;28;20088;-46
2022/08/14 04:08:35;;;;;;;9.40;5.90;;;;;;;18.98;54.04;99603.16;5027533;28;20057;-46
2022/08/14 04:11:03;;;;;;;9.60;6.03;;;;;;;18.97;54.55;99609.34;5027701;28;20050;-46
2022/08/14 04:13:38;;;;;;;10.02;6.22;;;;;;;18.94;54.10;99606.84;5024897;28;20052;-47
2022/08/14 04:16:10;;;;;;;11.82;5.75;;;;;;;18.91;54.35;99604.34;5027219;28;20132;-48
2022/08/14 04:18:40;;;;;;;8.02;5.65;;;;;;;18.88;53.75;99604.53;5025897;28;20057;-49
2022/08/14 04:21:09;;;;;;;10.32;6.03;;;;;;;18.85;54.29;99609.91;5026070;28;20052;-51
2022/08/14 04:23:37;;;;;;;8.80;5.57;;;;;;;18.84;53.70;99597.69;5025474;28;20050;-48
2022/08/14 04:26:09;;;;;;;10.65;5.65;;;;;;;18.81;54.58;99603.09;5027316;28;20041;-47
2022/08/14 04:28:42;;;;;;;9.32;6.40;;;;;;;18.78;54.11;99600.59;5025069;28;20103;-46
2022/08/14 04:31:29;;;;;;;8.00;5.72;;;;;;;18.74;54.73;99592.84;5024010;28;20643;-47
2022/08/14 04:34:16;;;;;;;8.40;5.82;;;;;;;18.72;54.43;99584.22;5026377;28;20049;-50
2022/08/14 04:45:26;;;;;;;10.70;6.28;;;;;;;18.60;54.55;99582.09;5027080;28;20075;-48
2022/08/14 04:51:05;;;;;;;9.18;5.95;;;;;;;18.56;54.66;99576.16;5025664;28;20172;-50
2022/08/14 04:53:33;;;;;;;10.77;6.15;;;;;;;18.55;54.22;99581.47;5029642;28;20048;-49
2022/08/14 04:56:11;;;;;;;9.32;6.07;;;;;;;18.53;54.63;99583.28;5030416;28;20103;-45
2022/08/14 04:59:04;;;;;;;10.98;6.25;;;;;;;18.50;54.26;99579.03;5042562;28;20041;-48
2022/08/14 05:01:37;;;;;;;8.43;5.53;;;;;;;18.47;55.19;99580.03;5030393;28;20045;-45
2022/08/14 05:04:07;;;;;;;8.10;5.57;;;;;;;18.46;54.49;99573.09;5029729;28;20050;-51
2022/08/14 05:06:41;;;;;;;11.88;6.47;;;;;;;18.42;55.27;99576.75;5030337;28;20051;-48
2022/08/14 05:09:08;;;;;;;8.27;5.60;;;;;;;18.39;55.25;99571.66;5030037;28;20053;-50
2022/08/14 05:11:41;;;;;;;9.27;6.35;;;;;;;18.38;55.31;99569.94;5029188;28;20064;-48
2022/08/14 05:14:10;;;;;;;11.57;6.20;;;;;;;18.35;55.53;99570.06;5028441;28;20693;-48
2022/08/14 05:16:57;;;;;;;10.32;6.00;;;;;;;18.33;54.93;99566.66;5029884;28;20135;-46
2022/08/14 05:19:28;;;;;;;13.73;6.13;;;;;;;18.35;55.13;99572.69;5029034;28;20049;-50
2022/08/14 05:21:59;;;;;;;10.65;6.63;;;;;;;18.36;54.71;99571.78;5029431;28;20053;-48
2022/08/14 05:24:48;;;;;;;10.68;5.97;;;;;;;18.37;54.86;99574.31;5027341;28;20049;-45
2022/08/14 05:27:19;;;;;;;9.60;6.07;;;;;;;18.38;55.00;99575.19;5027418;28;20051;-46
2022/08/14 05:29:52;;;;;;;10.05;6.15;;;;;;;18.39;55.52;99573.41;5029745;28;20073;-49
2022/08/14 05:32:22;;;;;;;9.65;5.65;;;;;;;18.40;55.47;99572.50;5028969;28;20574;-45
2022/08/14 05:34:56;;;;;;;12.35;6.55;;;;;;;18.43;55.41;99574.97;5026313;28;20049;-45
2022/08/14 05:37:26;;;;;;;9.63;6.70;;;;;;;18.48;55.25;99571.22;5029298;28;20050;-48
2022/08/14 05:39:53;;;;;;;11.43;6.28;;;;;;;18.59;55.55;99567.31;5027092;28;20444;-47
2022/08/14 05:42:21;;;;;;;8.23;6.45;;;;;;;18.71;56.18;99569.38;5028081;28;20038;-50
2022/08/14 05:44:59;;;;;;;12.93;7.10;;;;;;;18.86;55.83;99574.88;5029146;28;20124;-51
2022/08/14 05:47:26;;;;;;;11.80;7.90;;;;;;;18.99;56.03;99568.13;5029972;28;20103;-47
2022/08/14 05:50:07;;;;;;;10.35;6.43;;;;;;;19.14;55.70;99560.50;5028026;28;20050;-52
2022/08/14 05:52:46;;;;;;;11.30;6.20;;;;;;;19.20;55.16;99556.75;5027684;28;20037;-48
2022/08/14 05:55:14;;;;;;;13.02;6.53;;;;;;;19.18;54.88;99554.19;5029167;28;20052;-50
2022/08/14 06:00:28;;;;;;;9.20;5.70;;;;;;;19.13;55.04;99545.69;5089956;27;20391;-48
2022/08/14 06:03:05;;;;;;;9.80;5.93;;;;;;;19.11;55.32;99547.53;5062618;28;20378;-45
2022/08/14 06:05:33;;;;;;;9.18;5.95;;;;;;;19.11;54.81;99547.53;5061529;28;20091;-47
2022/08/14 06:08:03;;;;;;;12.70;6.55;;;;;;;19.10;55.32;99545.81;5064610;28;20056;-46
2022/08/14 06:10:47;;;;;;;14.13;6.05;;;;;;;19.07;55.18;99541.56;5063264;28;20099;-45
2022/08/14 06:13:15;;;;;;;11.93;6.15;;;;;;;19.08;54.77;99542.44;5060568;28;20045;-46
2022/08/14 06:15:43;;;;;;;10.10;5.63;;;;;;;19.10;54.84;99551.94;5057541;28;20045;-48
2022/08/14 06:18:11;;;;;;;14.23;6.28;;;;;;;19.12;55.11;99550.06;5053134;28;20160;-48
2022/08/14 06:20:43;;;;;;;11.90;6.07;;;;;;;19.14;55.17;99552.63;5053981;28;20056;-44
2022/08/14 06:23:11;;;;;;;11.13;6.03;;;;;;;19.14;55.18;99548.25;5081974;28;20530;-48
2022/08/14 06:25:40;;;;;;;10.85;6.70;;;;;;;19.17;55.46;99549.00;5076547;28;20048;-47
2022/08/14 06:28:07;;;;;;;9.57;6.50;;;;;;;19.20;55.04;99549.72;5074923;28;20044;-46
2022/08/14 06:30:54;;;;;;;11.27;5.95;;;;;;;19.24;55.26;99538.16;5073271;28;20090;-46
2022/08/14 06:33:21;;;;;;;11.07;5.85;;;;;;;19.29;55.32;99539.72;5079512;28;20044;-47
2022/08/14 06:35:48;;;;;;;8.40;5.53;;;;;;;19.35;55.16;99540.28;5083298;28;20102;-45
2022/08/14 06:38:17;;;;;;;11.05;5.70;;;;;;;19.41;55.55;99538.28;5080366;28;20052;-45
2022/08/14 06:40:45;;;;;;;9.48;5.40;;;;;;;19.63;55.44;99543.34;5077318;28;20048;-46
2022/08/14 06:43:13;;;;;;;12.35;6.47;;;;;;;20.07;55.56;99539.47;5080445;28;20055;-46
2022/08/14 06:45:43;;;;;;;11.93;5.88;;;;;;;20.57;55.12;99539.56;5071334;28;20037;-50
2022/08/14 06:48:22;;;;;;;8.10;5.38;;;;;;;21.06;54.75;99529.97;5069411;28;20512;-46
2022/08/14 06:50:50;;;;;;;8.75;7.20;;;;;;;21.53;54.12;99533.53;5065927;28;20152;-46
2022/08/14 06:53:18;;;;;;;8.32;5.38;;;;;;;21.96;53.31;99529.38;5082167;28;20094;-48
2022/08/14 06:55:46;;;;;;;7.82;5.43;;;;;;;22.32;52.66;99524.63;5075117;28;20083;-49
2022/08/14 06:58:27;;;;;;;12.88;5.40;;;;;;;22.65;51.95;99525.31;5076839;28;20060;-44
2022/08/14 07:06:49;;;;;;;6.72;5.38;;;;;;;23.64;49.87;99535.91;5076462;28;20435;-48
2022/08/14 07:09:15;;;;;;;7.88;5.53;;;;;;;23.91;49.25;99532.38;5078028;28;20180;-46
2022/08/14 07:11:49;;;;;;;5.90;4.68;;;;;;;24.20;48.73;99541.00;5064114;28;20602;-49
2022/08/14 07:14:16;;;;;;;8.00;4.93;;;;;;;24.47;47.95;99547.13;5066299;28;20063;-46
2022/08/14 07:16:42;;;;;;;6.65;4.85;;;;;;;24.77;47.78;99538.88;5069850;28;20109;-45
2022/08/14 07:19:10;;;;;;;6.82;4.22;;;;;;;25.03;47.16;99549.41;5068469;28;20067;-50
2022/08/14 07:21:37;;;;;;;8.18;4.63;;;;;;;25.26;46.55;99546.06;5067534;28;20037;-52
2022/08/14 07:24:04;;;;;;;6.47;5.32;;;;;;;25.44;45.42;99540.38;5068226;28;20442;-48
2022/08/14 07:26:35;;;;;;;8.05;4.47;;;;;;;25.75;45.66;99543.44;5068386;28;20056;-48
2022/08/14 07:29:04;;;;;;;6.32;4.20;;;;;;;26.05;45.29;99548.25;5070057;28;20037;-47
2022/08/14 07:31:32;;;;;;;6.38;4.20;;;;;;;26.28;44.42;99547.47;5068815;28;20057;-49
2022/08/14 07:33:59;;;;;;;4.90;3.97;;;;;;;26.49;44.10;99546.75;5066991;28;20098;-45
2022/08/14 07:36:29;;;;;;;7.05;4.03;;;;;;;26.62;43.63;99550.16;5069683;28;20064;-48
2022/08/14 07:38:58;;;;;;;5.00;4.10;;;;;;;26.79;43.14;99547.97;5069668;28;20512;-46
2022/08/14 07:41:28;;;;;;;6.72;3.95;;;;;;;27.07;43.17;99548.44;5065566;28;20408;-48
2022/08/14 07:44:00;;;;;;;5.97;4.00;;;;;;;27.38;42.54;99537.97;5065212;28;20106;-49
2022/08/14 07:46:46;;;;;;;4.82;3.75;;;;;;;27.70;41.89;99542.47;5065703;28;20072;-49
2022/08/14 07:49:13;;;;;;;4.72;3.42;;;;;;;28.03;41.14;99538.94;5069478;28;20535;-51
2022/08/14 07:51:44;;;;;;;6.40;3.90;;;;;;;28.30;41.29;99538.41;5068938;28;20420;-49
2022/08/14 07:54:15;;;;;;;4.82;3.45;;;;;;;28.62;40.50;99533.94;5068477;28;20101;-49
2022/08/14 07:56:49;;;;;;;4.75;3.38;;;;;;;28.87;39.93;99534.44;5065108;28;20040;-47
2022/08/14 07:59:23;;;;;;;4.03;3.10;;;;;;;29.11;39.48;99535.94;5066743;28;20140;-49
2022/08/14 08:02:10;;;;;;;5.32;3.35;;;;;;;29.44;39.50;99525.84;5068790;28;20082;-53
2022/08/14 08:04:49;;;;;;;6.88;3.90;;;;;;;29.74;38.53;99526.72;5067127;28;20106;-47
2022/08/14 08:07:20;;;;;;;5.95;3.28;;;;;;;29.97;37.43;99525.56;5067990;28;20068;-50
2022/08/14 08:09:52;;;;;;;4.90;4.40;;;;;;;30.13;38.04;99519.63;5066964;28;20439;-49
2022/08/14 08:12:20;;;;;;;4.47;2.70;;;;;;;30.32;37.10;99525.94;5062915;28;20072;-47
2022/08/14 08:14:55;;;;;;;4.95;2.60;;;;;;;30.55;37.80;99517.53;5066537;28;20102;-47
2022/08/14 08:17:33;;;;;;;3.40;2.65;;;;;;;30.87;37.28;99519.78;5069307;28;20539;-48
2022/08/14 08:20:14;;;;;;;4.38;3.00;;;;;;;31.09;36.30;99515.03;5066644;28;20052;-47
2022/08/14 08:22:47;;;;;;;2.95;2.70;;;;;;;31.38;36.39;99507.81;5067082;28;20102;-49
2022/08/14 08:25:22;;;;;;;6.68;2.65;;;;;;;31.72;35.84;99509.78;5067957;28;20044;-49
2022/08/14 08:30:39;;;;;;;4.05;2.58;;;;;;;32.12;35.13;99494.19;5046780;27;20394;-46
2022/08/14 08:33:15;;;;;;;4.00;2.92;;;;;;;32.34;34.58;99496.44;5019864;28;20387;-46
2022/08/14 08:35:44;;;;;;;3.10;2.33;;;;;;;32.61;34.57;99502.59;5020466;28;20049;-49
2022/08/14 08:38:18;;;;;;;5.88;2.65;;;;;;;32.75;33.55;99499.31;5020405;28;20148;-47
2022/08/14 08:41:05;;;;;;;4.22;2.65;;;;;;;32.82;33.32;99500.34;5020539;28;20139;-46
2022/08/14 08:43:37;;;;;;;7.70;2.63;;;;;;;32.80;33.42;99497.00;5026197;28;20421;-50
2022/08/14 08:46:12;;;;;;;4.05;2.75;;;;;;;32.94;33.30;99492.00;5007310;28;20041;-50
2022/08/14 08:48:50;;;;;;;3.80;3.05;;;;;;;33.12;33.37;99483.00;5020410;28;20041;-47
2022/08/14 08:51:38;;;;;;;4.82;2.05;;;;;;;33.33;32.56;99480.66;5025796;28;20100;-48
2022/08/14 08:54:14;;;;;;;2.80;2.50;;;;;;;33.40;32.44;99475.47;5023119;28;20072;-47
2022/08/14 08:56:47;;;;;;;4.85;2.67;;;;;;;33.44;31.46;99473.31;5023483;28;20045;-51
2022/08/14 09:02:02;;;;;;;5.70;3.83;;;;;;;33.42;31.33;99469.94;5063176;28;20379;-50
2022/08/14 09:04:37;;;;;;;4.03;3.72;;;;;;;33.58;31.65;99461.91;5017502;28;20064;-45
2022/08/14 09:07:18;;;;;;;6.78;5.03;;;;;;;33.82;31.49;99467.41;5011088;28;20100;-53
2022/08/14 09:09:55;;;;;;;6.32;5.20;;;;;;;33.92;31.00;99462.69;5020108;28;20045;-47
2022/08/14 09:12:30;;;;;;;3.75;3.45;;;;;;;34.10;31.19;99449.06;5023122;28;20042;-50
2022/08/14 09:15:01;;;;;;;4.20;3.83;;;;;;;34.18;30.45;99450.06;5018456;28;20573;-52
2022/08/14 09:17:27;;;;;;;5.50;4.45;;;;;;;34.15;29.87;99445.03;5018322;28;20075;-52
2022/08/14 09:19:55;;;;;;;4.45;4.13;;;;;;;34.22;29.97;99446.84;5011604;28;20486;-49
2022/08/14 09:22:27;;;;;;;4.13;2.35;;;;;;;34.22;29.02;99436.09;5014691;28;20395;-51
2022/08/14 09:25:05;;;;;;;3.72;2.28;;;;;;;34.29;29.55;99436.25;5019612;28;20517;-49
2022/08/14 09:27:33;;;;;;;4.43;4.03;;;;;;;34.34;29.24;99436.53;5020689;28;20125;-50
2022/08/14 09:30:00;;;;;;;5.35;3.63;;;;;;;34.49;28.73;99435.81;5016719;28;20050;-52
2022/08/14 09:33:14;;;;;;;4.05;3.67;;;;;;;34.68;29.88;99433.72;5010794;28;20611;-48
2022/08/14 09:43:58;;;;;;;2.55;2.35;;;;;;;35.22;28.24;99418.56;5062233;28;20387;-54
2022/08/14 09:46:26;;;;;;;5.47;1.95;;;;;;;35.38;28.85;99429.19;5022247;28;20050;-52
2022/08/14 09:48:58;;;;;;;6.63;2.00;;;;;;;35.59;28.04;99416.03;5017673;28;20054;-50
2022/08/14 09:51:28;;;;;;;4.78;2.00;;;;;;;35.71;27.39;99417.28;5024750;28;20045;-45
2022/08/14 09:54:05;;;;;;;2.30;2.10;;;;;;;35.86;27.74;99414.59;5017147;28;20523;-50
2022/08/14 09:56:50;;;;;;;4.35;1.90;;;;;;;35.92;27.00;99412.19;5020077;28;20057;-48
2022/08/14 09:59:26;;;;;;;3.30;2.38;;;;;;;35.98;27.09;99416.81;5018314;28;20080;-50
2022/08/14 10:01:59;;;;;;;3.13;1.92;;;;;;;36.07;26.92;99415.72;5019632;28;20056;-49
2022/08/14 10:04:27;;;;;;;2.50;2.05;;;;;;;36.13;27.01;99412.25;5015242;28;20061;-50
2022/08/14 10:07:04;;;;;;;2.85;1.95;;;;;;;36.14;26.26;99411.22;5019501;28;20050;-49
2022/08/14 10:09:31;;;;;;;3.17;2.00;;;;;;;36.18;26.09;99410.88;5015483;28;20053;-50
2022/08/14 10:12:01;;;;;;;3.17;1.60;;;;;;;36.20;26.03;99408.84;5010363;28;20639;-46
2022/08/14 10:14:33;;;;;;;3.35;1.83;;;;;;;36.32;25.57;99406.47;5008908;28;20046;-50
2022/08/14 10:17:04;;;;;;;2.65;1.88;;;;;;;36.34;25.03;99399.91;5022049;28;20050;-53
2022/08/14 10:19:33;;;;;;;3.55;1.95;;;;;;;36.35;25.32;99404.25;5020526;28;20038;-48
2022/08/14 10:24:41;;;;;;;3.00;2.08;;;;;;;36.43;25.21;99394.38;5036875;28;20401;-48
2022/08/14 10:27:18;;;;;;;3.05;2.72;;;;;;;36.50;25.10;99404.19;5025053;28;20907;-51
2022/08/14 10:29:53;;;;;;;2.90;2.15;;;;;;;36.46;24.41;99396.66;5058167;28;20061;-51
2022/08/14 10:32:21;;;;;;;4.57;1.90;;;;;;;36.38;24.85;99395.78;5023343;28;20053;-51
2022/08/14 10:35:11;;;;;;;3.17;2.03;;;;;;;36.43;24.98;99405.16;5022414;28;20080;-52
2022/08/14 10:37:46;;;;;;;2.38;1.92;;;;;;;36.63;24.63;99398.13;5038499;28;20056;-54
2022/08/14 10:40:24;;;;;;;2.33;2.13;;;;;;;36.81;24.77;99396.03;5024131;28;20049;-50
2022/08/14 10:43:16;;;;;;;2.83;2.08;;;;;;;36.78;23.72;99391.88;5024980;28;20045;-49
2022/08/14 10:45:53;;;;;;;3.17;2.10;;;;;;;36.83;24.54;99380.47;5026323;28;20042;-49
2022/08/14 10:48:41;;;;;;;4.28;2.25;;;;;;;36.96;24.66;99377.06;5024742;28;20156;-49
2022/08/14 10:51:15;;;;;;;3.28;1.92;;;;;;;37.05;24.26;99384.00;5023315;28;20046;-49
2022/08/14 10:53:53;;;;;;;3.80;2.25;;;;;;;37.16;24.16;99379.97;5024662;28;20044;-51
2022/08/14 10:56:32;;;;;;;2.78;2.40;;;;;;;37.19;22.89;99373.34;5054425;28;20096;-48
2022/08/14 10:59:04;;;;;;;2.40;2.20;;;;;;;37.20;23.37;99369.59;5025151;28;20494;-47
2022/08/14 11:01:37;;;;;;;4.65;2.15;;;;;;;37.14;23.24;99361.25;5022092;28;20104;-51
2022/08/14 11:04:19;;;;;;;2.97;1.85;;;;;;;36.89;23.14;99358.97;5020692;28;20058;-49
2022/08/14 11:06:52;;;;;;;5.70;1.90;;;;;;;36.86;23.13;99359.34;5023073;28;20041;-53
2022/08/14 11:09:19;;;;;;;3.35;2.00;;;;;;;36.84;23.07;99350.63;5023849;28;20050;-47
2022/08/14 11:11:54;;;;;;;4.30;2.00;;;;;;;36.76;23.36;99348.06;5023853;28;20077;-49
2022/08/14 11:14:41;;;;;;;2.80;2.30;;;;;;;36.75;23.03;99344.53;5023067;28;20066;-52
2022/08/14 11:17:08;;;;;;;3.28;2.33;;;;;;;36.69;23.61;99341.75;5024632;28;20051;-50
2022/08/14 11:19:36;;;;;;;2.63;2.40;;;;;;;36.40;22.69;99345.19;5022236;28;20045;-51
2022/08/14 11:22:04;;;;;;;2.92;2.20;;;;;;;36.36;23.40;99338.53;5022819;28;20478;-49
2022/08/14 11:24:35;;;;;;;4.18;2.10;;;;;;;36.37;23.33;99333.97;5026090;28;20053;-47
2022/08/14 11:27:24;;;;;;;8.13;2.45;;;;;;;36.26;22.81;99344.22;5024582;28;20072;-51
2022/08/14 11:30:04;;;;;;;2.40;1.90;;;;;;;36.10;23.21;99334.47;5023185;28;20414;-48
2022/08/14 11:32:51;;;;;;;3.45;1.90;;;;;;;36.17;23.18;99333.72;5022753;28;20136;-47
2022/08/14 11:35:23;;;;;;;4.43;2.28;;;;;;;36.29;23.25;99336.78;5011146;28;20048;-45
2022/08/14 11:38:04;;;;;;;5.13;2.35;;;;;;;36.35;23.32;99336.84;5009903;28;20787;-45
2022/08/14 11:40:35;;;;;;;4.57;2.72;;;;;;;36.24;23.29;99337.34;5006552;28;20085;-47
2022/08/14 11:43:06;;;;;;;2.92;1.95;;;;;;;36.32;22.85;99331.00;5009240;28;20560;-52
2022/08/14 11:45:36;;;;;;;4.25;2.70;;;;;;;36.44;23.50;99329.50;5010157;28;20515;-51
2022/08/14 11:48:21;;;;;;;2.50;1.95;;;;;;;36.52;22.88;99320.44;5008861;28;20100;-51
2022/08/14 11:51:15;;;;;;;3.17;2.30;;;;;;;36.61;22.66;99330.03;5010644;28;20070;-48
2022/08/14 11:53:42;;;;;;;5.57;3.42;;;;;;;36.58;22.50;99330.44;5009317;28;20339;-50
2022/08/14 11:56:11;;;;;;;2.53;2.00;;;;;;;36.54;23.26;99318.38;5010140;28;20077;-51
2022/08/14 11:58:39;;;;;;;4.20;2.30;;;;;;;36.52;22.27;99325.81;5010615;28;20141;-49
2022/08/14 12:01:08;;;;;;;2.72;2.53;;;;;;;36.42;22.57;99314.50;5010327;28;20041;-47
2022/08/14 12:06:15;;;;;;;3.45;3.15;;;;;;;36.16;22.78;99314.00;5051859;27;20398;-51
2022/08/14 12:09:01;;;;;;;5.00;3.95;;;;;;;36.00;23.09;99307.00;5022058;28;20064;-49
2022/08/14 12:11:38;;;;;;;3.90;3.30;;;;;;;35.98;22.81;99303.66;5023223;28;20041;-51
2022/08/14 12:14:10;;;;;;;;;;;;;;;35.90;23.39;99291.16;5016912;28;20049;-50
2022/08/14 12:17:00;;;;;;;3.67;3.38;;;;;;;35.96;22.40;99300.34;5022691;28;19975;-50
2022/08/14 12:19:28;;;;;;;4.43;3.42;;;;;;;35.93;22.20;99292.63;5020106;28;20076;-51
2022/08/14 12:22:00;;;;;;;3.40;3.20;;;;;;;35.87;21.99;99284.25;5020402;28;20049;-50
2022/08/14 12:24:28;;;;;;;5.63;3.55;;;;;;;35.83;22.51;99280.28;5014704;28;20045;-52
2022/08/14 12:27:02;;;;;;;6.35;2.92;;;;;;;35.82;22.28;99284.00;5005354;28;20061;-49
2022/08/14 12:29:29;;;;;;;3.80;2.95;;;;;;;35.75;22.61;99272.31;5005883;28;20069;-49
2022/08/14 12:32:02;;;;;;;3.05;2.72;;;;;;;35.85;22.13;99277.41;5003112;28;20054;-46
2022/08/14 12:34:31;;;;;;;3.88;3.53;;;;;;;35.94;22.39;99275.44;5002604;28;20050;-54
2022/08/14 12:37:05;;;;;;;2.55;2.33;;;;;;;36.04;22.40;99265.19;5003199;28;20610;-46
2022/08/14 12:39:33;;;;;;;4.28;2.90;;;;;;;36.08;22.52;99271.88;5001539;28;20050;-49
2022/08/14 12:42:06;;;;;;;3.05;2.75;;;;;;;36.12;22.58;99267.75;5003236;28;20100;-47
2022/08/14 12:44:36;;;;;;;4.20;3.30;;;;;;;36.03;21.73;99268.88;5004011;28;20141;-51